Airfield :
LOGIN :

Register | Disclaimer

   EN    FR    IT 

 










Legend :    VFR   Marginal VFR   IFR   Intensive IFR   Very Intensive IFR
Visi :
Ceiling :
>= 8 km
>= 3000ft
5 to 8 km
1000 to 3000 ft
1500m to 5 km
500 to 1000 ft
800 to 1500m
200 to 500 ft
< 800m
< 200 ft
Symbols :   Thunderstorms  Fog  Heavy snow  Heavy precipitations  Wind > 20 kt
SIGMETs :     Misc.  Thunderstorms  Icing  Turbulence  Mountain Waves  Volcanic Ashes







- Airport Elevation : 291 ft
- IATA code : ORY
- Download approach charts


LFPO - Paris-Orly

CURRENT METAR :
  • 160030Z 28002KT CAVOK 15/13 Q1019 NOSIG

EXPIRED METARs :
  • 160000Z 29002KT CAVOK 15/13 Q1019 NOSIG
  • 152330Z 00000KT CAVOK 16/13 Q1019 NOSIG
  • 152300Z VRB02KT CAVOK 16/13 Q1019 NOSIG
  • 152230Z 28004KT CAVOK 16/12 Q1019 NOSIG
  • 152200Z 00000KT CAVOK 17/13 Q1019 NOSIG

TAF TAF LFPO
Valid from the 16 at 00:00 until the 17 at 06:00 UTC


152300Z 1600/1706 VRB03KT CAVOK
BECMG 1608/1611 20005KT
BECMG 1617/1619 34010KT
TEMPO 1617/1703 34015G25KT
TEMPO 1622/1706 4000 SHRA SCT012 BKN055CB
PROB30
TEMPO 1622/1703 2500 -TSRA BKN008 BKN060CB
ATIS : +33 1 49 75 65 80
No reported NOTAMs for that airfield.



MET'MAP, your aeronautical weather chart ! - Copyright ORBIFLY December 2007 - Disclaimer

ORBIFLY MET'MAP TEAM :

Programming & Development : Alexandra Zaïnal
Concept & Development : Baudouin d'Aumeries
Co-Development & Prog : Marc-Olivier Méhu
Technical & hardware support : Manuel Goepfert

Contact : metmap@orbifly.com




SOURCES & CREDITS :

   NOAA